Terminal Aerodrome Forecast
Issued by NWS Blacksburg, VA

Current Version | Previous Version | Graphics & Text | Print | Product List | Glossary On
Versions: 1 2 3 4 5 6 7 8 9 10 11 12 13 14 15 16 17 18 19 20 21 22 23 24 25 26 27 28 29 30 31 32 33 34 35 36
000
FTUS41 KRNK 291723
TAFBLF
TAF
KBLF 291723Z 2918/3018 24008G16KT P6SM SCT060 BKN100
     FM300000 23009KT P6SM VCSH SCT050 BKN080
     FM300500 23009KT P6SM SCT020 BKN040
     FM300900 25007KT 5SM BR BKN025
     FM301300 26010KT P6SM SCT025 BKN040=

USA.gov is the U.S. government's official web portal to all federal, state and local government web resources and services.